Time;durP1;ratioP1;P1;durP2;ratioP2;P2;SDS_P1;SDS_P2;PMS_P1;PMS_P2;Temp;Humidity;BMP_temperature;BMP_pressure;BME280_temperature;BME280_humidity;BME280_pressure;Samples;Min_cycle;Max_cycle;Signal;HPM_P1;HPM_P2
2023/07/16 00:01:56;;;;;;;11.73;2.45;;;;;;;16.98;64.47;100833.34;6163079;23;20053;-76
2023/07/16 00:04:23;;;;;;;3.40;1.95;;;;;;;16.99;64.40;100832.88;6189207;23;20336;-75
2023/07/16 00:06:50;;;;;;;3.67;2.17;;;;;;;16.98;64.23;100836.78;6189468;23;20455;-76
2023/07/16 00:09:16;;;;;;;4.50;1.75;;;;;;;16.99;63.59;100834.81;6189080;23;20041;-75
2023/07/16 00:11:43;;;;;;;6.78;2.05;;;;;;;16.98;63.69;100838.72;6163005;23;20053;-76
2023/07/16 00:14:11;;;;;;;2.92;1.95;;;;;;;16.94;63.77;100822.81;6189462;23;20072;-76
2023/07/16 00:16:38;;;;;;;7.70;2.08;;;;;;;16.96;64.01;100827.72;6189372;23;20028;-76
2023/07/16 00:19:05;;;;;;;8.70;2.15;;;;;;;16.94;63.52;100830.88;6189516;23;20014;-76
2023/07/16 00:21:32;;;;;;;8.95;2.42;;;;;;;16.93;63.65;100834.06;6189255;23;20028;-76
2023/07/16 00:23:59;;;;;;;6.40;2.10;;;;;;;16.91;63.65;100826.47;6188727;23;20444;-75
2023/07/16 00:26:25;;;;;;;6.13;2.50;;;;;;;16.90;64.07;100832.31;6162628;23;20069;-76
2023/07/16 00:28:52;;;;;;;8.70;2.40;;;;;;;16.90;63.42;100826.94;6188587;23;20420;-76
2023/07/16 00:31:18;;;;;;;6.07;2.30;;;;;;;16.89;63.89;100828.91;6189365;23;20024;-76
2023/07/16 00:33:45;;;;;;;3.55;2.03;;;;;;;16.86;63.46;100827.16;6189715;23;20021;-76
2023/07/16 00:36:12;;;;;;;4.93;2.28;;;;;;;16.85;63.73;100835.72;6189336;23;20424;-76
2023/07/16 00:38:42;;;;;;;4.63;2.30;;;;;;;16.83;64.25;100833.50;6188743;23;20064;-76
2023/07/16 00:41:09;;;;;;;3.90;2.17;;;;;;;16.80;64.15;100834.47;6189072;23;20053;-76
2023/07/16 00:43:35;;;;;;;5.50;2.10;;;;;;;16.78;64.11;100842.28;6189230;23;20036;-75
2023/07/16 00:46:02;;;;;;;6.28;2.40;;;;;;;16.78;64.45;100842.28;6189287;23;20072;-76
2023/07/16 00:48:29;;;;;;;5.35;2.22;;;;;;;16.76;64.21;100849.38;6162732;23;20097;-75
2023/07/16 00:50:56;;;;;;;4.95;2.47;;;;;;;16.74;64.38;100846.41;6162034;23;20423;-76
2023/07/16 00:53:23;;;;;;;8.55;2.13;;;;;;;16.71;63.98;100850.81;6161796;23;20089;-76
2023/07/16 00:55:50;;;;;;;4.20;2.47;;;;;;;16.70;64.40;100845.91;6189116;23;20455;-76
2023/07/16 00:58:16;;;;;;;12.05;2.38;;;;;;;16.66;64.31;100851.50;6189579;23;20356;-76
2023/07/16 01:00:43;;;;;;;7.93;2.63;;;;;;;16.65;64.66;100850.75;6189717;23;20474;-76
2023/07/16 01:03:14;;;;;;;8.38;2.75;;;;;;;16.64;64.65;100851.22;6189232;23;20081;-75
2023/07/16 01:05:40;;;;;;;5.35;2.22;;;;;;;16.61;65.21;100855.59;6163154;23;20447;-76
2023/07/16 01:08:10;;;;;;;8.07;2.38;;;;;;;16.59;64.86;100855.31;6188563;23;20033;-76
2023/07/16 01:10:39;;;;;;;5.65;2.40;;;;;;;16.58;65.43;100855.81;6162618;23;20025;-76
2023/07/16 01:13:06;;;;;;;5.07;2.38;;;;;;;16.56;65.02;100856.28;6189356;23;20037;-76
2023/07/16 01:15:32;;;;;;;2.90;2.33;;;;;;;16.53;65.21;100849.16;6189374;23;20052;-75
2023/07/16 01:18:00;;;;;;;11.20;2.17;;;;;;;16.54;65.37;100844.53;6189198;23;20522;-76
2023/07/16 01:20:26;;;;;;;4.53;2.78;;;;;;;16.56;65.38;100842.84;6162154;23;20029;-76
2023/07/16 01:22:59;;;;;;;6.97;2.47;;;;;;;16.57;65.19;100840.88;6188522;23;20487;-75
2023/07/16 01:25:44;;;;;;;4.45;2.67;;;;;;;16.56;65.63;100840.16;6162523;23;20414;-76
2023/07/16 01:28:29;;;;;;;5.82;2.58;;;;;;;16.57;65.24;100846.25;6188787;23;20014;-75
2023/07/16 01:30:58;;;;;;;6.00;2.50;;;;;;;16.56;65.44;100836.72;6189254;23;20022;-75
2023/07/16 01:33:25;;;;;;;5.97;2.70;;;;;;;16.53;65.55;100840.38;6162852;23;20469;-75
2023/07/16 01:35:54;;;;;;;3.65;2.42;;;;;;;16.49;66.08;100839.84;6188759;23;20455;-75
2023/07/16 01:38:23;;;;;;;9.05;2.70;;;;;;;16.48;66.11;100838.38;6189203;23;20020;-75
2023/07/16 01:40:49;;;;;;;5.07;2.80;;;;;;;16.48;65.71;100836.44;6188987;23;20022;-76
2023/07/16 01:43:16;;;;;;;5.38;2.72;;;;;;;16.50;65.75;100836.69;6162758;23;20017;-75
2023/07/16 01:45:43;;;;;;;9.48;2.47;;;;;;;16.50;65.63;100838.63;6162480;23;20096;-76
2023/07/16 01:48:25;;;;;;;4.85;2.67;;;;;;;16.51;65.95;100845.47;6162289;23;20025;-75
2023/07/16 01:50:52;;;;;;;9.32;3.20;;;;;;;16.50;65.70;100844.75;6137496;23;20479;-75
2023/07/16 01:53:18;;;;;;;7.38;2.83;;;;;;;16.48;65.80;100844.47;6189049;23;20017;-75
2023/07/16 01:55:45;;;;;;;6.25;2.75;;;;;;;16.49;66.15;100839.84;6189392;23;20014;-76
2023/07/16 01:58:11;;;;;;;8.20;2.80;;;;;;;16.47;66.55;100840.31;6137643;23;20028;-75
2023/07/16 02:00:39;;;;;;;9.75;2.85;;;;;;;16.44;66.87;100846.66;6162220;23;20033;-76
2023/07/16 02:03:05;;;;;;;7.63;2.83;;;;;;;16.41;67.43;100847.59;6161882;23;20033;-76
2023/07/16 02:05:32;;;;;;;6.13;2.88;;;;;;;16.39;67.23;100842.00;6188341;23;20459;-76
2023/07/16 02:07:59;;;;;;;9.48;2.90;;;;;;;16.41;67.18;100844.91;6162712;23;20013;-75
2023/07/16 02:10:25;;;;;;;9.73;3.30;;;;;;;16.39;67.30;100849.31;6189025;23;20447;-75
2023/07/16 02:12:52;;;;;;;9.02;2.88;;;;;;;16.40;67.43;100851.50;6188908;23;20404;-76
2023/07/16 02:15:19;;;;;;;8.52;3.20;;;;;;;16.40;67.24;100848.06;6188961;23;20482;-76
2023/07/16 02:17:45;;;;;;;16.27;3.80;;;;;;;16.39;67.65;100846.63;6189264;23;20020;-76
2023/07/16 02:20:12;;;;;;;6.82;3.40;;;;;;;16.39;67.93;100841.25;6188299;23;20024;-75
2023/07/16 02:22:39;;;;;;;8.63;3.20;;;;;;;16.37;68.15;100841.00;6189035;23;20104;-76
2023/07/16 02:25:06;;;;;;;7.68;3.20;;;;;;;16.34;68.27;100835.38;6189032;23;20048;-75
2023/07/16 02:27:33;;;;;;;6.13;3.08;;;;;;;16.36;68.51;100834.16;6188432;23;20443;-75
2023/07/16 02:29:59;;;;;;;9.65;3.35;;;;;;;16.33;68.52;100843.91;6188948;23;20073;-75
2023/07/16 02:32:26;;;;;;;5.28;3.45;;;;;;;16.30;68.99;100847.53;6188876;23;20020;-76
2023/07/16 02:34:52;;;;;;;10.70;3.70;;;;;;;16.28;68.97;100848.00;6188376;23;20407;-75
2023/07/16 02:37:19;;;;;;;8.60;3.42;;;;;;;16.28;68.73;100844.59;6188856;23;20017;-74
2023/07/16 02:39:48;;;;;;;7.38;3.38;;;;;;;16.25;69.48;100848.97;6189349;23;20028;-73
2023/07/16 02:42:15;;;;;;;8.32;3.60;;;;;;;16.25;69.58;100850.91;6189286;23;20080;-77
2023/07/16 02:44:44;;;;;;;6.57;3.65;;;;;;;16.26;69.69;100847.75;6189126;23;20041;-77
2023/07/16 02:47:11;;;;;;;9.85;3.10;;;;;;;16.27;69.48;100838.47;6161819;23;20457;-75
2023/07/16 02:49:38;;;;;;;6.95;3.25;;;;;;;16.31;69.38;100841.69;6188118;23;20536;-74
2023/07/16 02:52:06;;;;;;;5.05;3.35;;;;;;;16.34;69.36;100851.47;6162411;23;20018;-75
2023/07/16 02:54:34;;;;;;;9.82;3.58;;;;;;;16.34;69.54;100851.47;6161813;23;20048;-75
2023/07/16 02:57:01;;;;;;;12.73;3.38;;;;;;;16.34;69.07;100848.06;6161782;23;20021;-75
2023/07/16 02:59:28;;;;;;;7.43;3.00;;;;;;;16.32;69.56;100847.78;6161996;23;20026;-74
2023/07/16 03:01:55;;;;;;;6.40;3.25;;;;;;;16.30;69.56;100848.28;6161699;23;20176;-75
2023/07/16 03:04:21;;;;;;;4.53;3.25;;;;;;;16.28;69.47;100855.34;6136946;23;20053;-75
2023/07/16 03:06:48;;;;;;;5.05;3.25;;;;;;;16.26;69.87;100861.19;6161997;23;20478;-75
2023/07/16 03:09:15;;;;;;;8.07;3.53;;;;;;;16.23;69.77;100859.44;6188904;23;20104;-75
2023/07/16 03:11:41;;;;;;;6.63;3.30;;;;;;;16.19;70.29;100858.19;6188666;23;20444;-75
2023/07/16 03:14:08;;;;;;;7.57;3.33;;;;;;;16.16;70.12;100861.81;6161691;23;20022;-74
2023/07/16 03:16:35;;;;;;;7.22;3.03;;;;;;;16.15;70.53;100863.03;6188450;23;20021;-76
2023/07/16 03:19:01;;;;;;;9.32;3.22;;;;;;;16.12;70.45;100862.03;6188071;23;20456;-75
2023/07/16 03:21:30;;;;;;;9.45;2.83;;;;;;;16.12;70.47;100858.59;6137108;23;20771;-75
2023/07/16 03:23:56;;;;;;;4.85;3.00;;;;;;;16.13;70.18;100860.06;6188683;23;20018;-77
2023/07/16 03:26:23;;;;;;;16.27;3.75;;;;;;;16.13;70.24;100855.44;6188364;23;20018;-76
2023/07/16 03:28:50;;;;;;;10.85;3.35;;;;;;;16.13;70.53;100858.13;6156656;23;20029;-76
2023/07/16 03:31:17;;;;;;;5.75;3.38;;;;;;;16.11;70.20;100860.53;6157176;23;20085;-76
2023/07/16 03:33:45;;;;;;;11.35;3.67;;;;;;;16.10;70.78;100856.38;6156275;23;20022;-76
2023/07/16 03:36:12;;;;;;;5.80;3.17;;;;;;;16.08;70.74;100864.19;6156134;23;20018;-76
2023/07/16 03:38:41;;;;;;;7.60;3.92;;;;;;;16.08;70.49;100863.44;6156664;23;20054;-75
2023/07/16 03:41:07;;;;;;;10.95;3.40;;;;;;;16.07;70.74;100861.97;6156354;23;20054;-76
2023/07/16 03:43:34;;;;;;;6.68;3.08;;;;;;;16.07;70.61;100867.34;6156237;23;20018;-75
2023/07/16 03:46:27;;;;;;;6.47;3.05;;;;;;;16.06;70.60;100871.97;6153844;23;20018;-76
2023/07/16 03:48:54;;;;;;;5.05;3.22;;;;;;;16.07;71.43;100873.44;6156322;23;20022;-76
2023/07/16 03:51:20;;;;;;;4.55;2.70;;;;;;;16.07;70.80;100891.50;6156552;23;20526;-75
2023/07/16 03:53:47;;;;;;;9.90;3.00;;;;;;;16.09;70.70;100886.41;6158570;23;20066;-76
2023/07/16 03:56:13;;;;;;;7.95;2.80;;;;;;;16.08;70.52;100877.59;6156740;23;20456;-76
2023/07/16 03:58:41;;;;;;;6.50;3.33;;;;;;;16.10;70.61;100883.25;6158265;23;20018;-77
2023/07/16 04:01:07;;;;;;;12.00;3.17;;;;;;;16.10;70.08;100893.97;6155724;23;20022;-76
2023/07/16 04:03:34;;;;;;;7.10;2.88;;;;;;;16.10;70.27;100893.97;6156762;23;20464;-75
2023/07/16 04:06:05;;;;;;;7.55;2.90;;;;;;;16.10;70.14;100902.03;6158223;23;20014;-75
2023/07/16 04:08:32;;;;;;;4.47;2.75;;;;;;;16.12;69.88;100906.94;6158349;23;20054;-76
2023/07/16 04:10:59;;;;;;;9.40;3.67;;;;;;;16.11;70.26;100900.81;6158328;23;20451;-75
2023/07/16 04:13:25;;;;;;;9.93;3.60;;;;;;;16.11;70.45;100902.78;6158320;23;20050;-75
2023/07/16 04:15:54;;;;;;;6.85;3.47;;;;;;;16.10;70.60;100902.03;6157632;23;20049;-76
2023/07/16 04:18:22;;;;;;;9.57;3.78;;;;;;;16.10;70.06;100907.41;6158438;23;20025;-75
2023/07/16 04:20:48;;;;;;;8.00;3.60;;;;;;;16.12;70.67;100904.25;6158346;23;20102;-75
2023/07/16 04:23:15;;;;;;;8.52;3.65;;;;;;;16.12;70.35;100902.28;6158397;23;20025;-76
2023/07/16 04:25:42;;;;;;;7.68;3.42;;;;;;;16.13;70.32;100913.78;6158101;23;20053;-76
2023/07/16 04:28:10;;;;;;;7.95;3.67;;;;;;;16.13;70.58;100906.47;6177516;23;20302;-76
2023/07/16 04:30:37;;;;;;;13.10;4.13;;;;;;;16.15;70.23;100914.03;6188882;23;20021;-75
2023/07/16 04:33:04;;;;;;;9.02;3.60;;;;;;;16.18;69.98;100923.84;6189588;23;20447;-76
2023/07/16 04:35:32;;;;;;;7.82;3.40;;;;;;;16.20;69.81;100924.09;6189332;23;20436;-75
2023/07/16 04:37:59;;;;;;;7.25;3.70;;;;;;;16.21;70.31;100931.69;6189440;23;20017;-76
2023/07/16 04:40:25;;;;;;;6.70;3.55;;;;;;;16.25;69.89;100928.81;6189488;23;20017;-76
2023/07/16 04:42:52;;;;;;;10.52;3.95;;;;;;;16.29;69.55;100930.06;6189154;23;20014;-75
2023/07/16 04:45:18;;;;;;;9.73;4.22;;;;;;;16.33;69.46;100927.91;6162382;23;20479;-75
2023/07/16 04:47:45;;;;;;;10.75;4.10;;;;;;;16.43;68.99;100941.16;6189768;23;20427;-75
2023/07/16 04:50:11;;;;;;;6.60;3.92;;;;;;;16.64;67.97;100942.63;6162522;23;20048;-75
2023/07/16 04:52:38;;;;;;;7.43;3.70;;;;;;;16.73;68.21;100941.72;6162679;23;20032;-75
2023/07/16 04:55:05;;;;;;;10.07;3.38;;;;;;;17.53;65.43;100935.13;6189282;23;20013;-75
2023/07/16 04:57:33;;;;;;;8.05;4.13;;;;;;;17.55;65.25;100943.44;6188994;23;20134;-75
2023/07/16 04:59:59;;;;;;;9.88;4.25;;;;;;;18.52;62.51;100943.97;6188628;23;20018;-75
2023/07/16 05:02:26;;;;;;;10.07;3.70;;;;;;;18.43;61.83;100941.50;6189239;23;20478;-75
2023/07/16 05:04:53;;;;;;;7.53;3.83;;;;;;;19.55;59.14;100947.53;6189101;23;20468;-75
2023/07/16 05:07:19;;;;;;;11.05;3.80;;;;;;;21.21;54.09;100943.44;6162858;23;20022;-76
2023/07/16 05:09:46;;;;;;;4.28;3.88;;;;;;;22.22;51.24;100945.66;6189263;23;20088;-75
2023/07/16 05:12:12;;;;;;;11.88;3.67;;;;;;;22.86;49.05;100962.63;6188888;23;20025;-75
2023/07/16 05:14:45;;;;;;;7.85;3.85;;;;;;;22.62;49.79;100958.09;6188459;23;20222;-75
2023/07/16 05:17:15;;;;;;;8.43;3.85;;;;;;;23.43;47.48;100946.06;6189026;23;20023;-75
2023/07/16 05:19:42;;;;;;;6.78;4.45;;;;;;;22.99;47.67;100944.91;6162781;23;20020;-76
2023/07/16 05:22:08;;;;;;;9.77;3.88;;;;;;;22.81;47.60;100949.16;6162704;23;20377;-75
2023/07/16 05:24:35;;;;;;;6.35;4.00;;;;;;;23.94;45.60;100951.94;6188765;23;20018;-76
2023/07/16 05:27:02;;;;;;;8.05;4.05;;;;;;;24.41;44.54;100946.41;6162255;23;20053;-76
2023/07/16 05:29:28;;;;;;;8.10;4.05;;;;;;;25.00;43.16;100951.41;6188856;23;20577;-75
2023/07/16 05:31:55;;;;;;;5.00;3.70;;;;;;;25.08;42.55;100952.19;6188849;23;20025;-75
2023/07/16 05:34:22;;;;;;;8.68;4.25;;;;;;;25.12;42.31;100961.47;6188966;23;20507;-74
2023/07/16 05:36:48;;;;;;;7.70;4.35;;;;;;;25.66;41.57;100959.00;6188819;23;20018;-75
2023/07/16 05:39:15;;;;;;;7.10;3.72;;;;;;;25.33;41.30;100966.13;6162976;23;20035;-74
2023/07/16 05:41:42;;;;;;;6.70;4.20;;;;;;;25.05;41.25;100972.31;6188769;23;20021;-72
2023/07/16 05:44:09;;;;;;;6.43;4.40;;;;;;;24.62;42.49;100981.06;6188243;23;20407;-73
2023/07/16 05:46:36;;;;;;;6.68;4.18;;;;;;;24.74;42.36;100984.97;6189072;23;20064;-72
2023/07/16 05:49:03;;;;;;;5.70;3.72;;;;;;;24.80;42.11;100989.00;6189135;23;20024;-73
2023/07/16 05:51:29;;;;;;;7.22;3.90;;;;;;;24.53;42.92;100990.41;6189083;23;20024;-73
2023/07/16 05:53:57;;;;;;;8.18;4.35;;;;;;;24.14;43.75;100997.47;6188770;23;20018;-73
2023/07/16 05:56:23;;;;;;;10.90;4.00;;;;;;;24.14;44.36;100996.72;6162657;23;20093;-73
2023/07/16 05:58:50;;;;;;;9.60;3.85;;;;;;;23.94;45.59;100988.00;6188181;23;20018;-73
2023/07/16 06:01:16;;;;;;;8.40;4.05;;;;;;;23.87;44.67;100996.81;6189279;23;20092;-73
2023/07/16 06:03:43;;;;;;;11.18;5.05;;;;;;;23.40;45.75;101002.16;6189653;23;20085;-74
2023/07/16 06:06:10;;;;;;;6.97;4.60;;;;;;;23.17;45.56;100996.41;6188963;23;20028;-73
2023/07/16 06:08:36;;;;;;;6.70;4.32;;;;;;;22.92;47.00;100995.84;6189218;23;20021;-77
2023/07/16 06:11:03;;;;;;;12.38;4.28;;;;;;;22.76;47.95;100998.84;6190140;23;20084;-73
2023/07/16 06:13:30;;;;;;;6.13;4.28;;;;;;;22.81;47.46;101004.19;6188799;23;20400;-74
2023/07/16 06:15:57;;;;;;;5.95;4.50;;;;;;;22.36;48.29;100998.69;6163398;23;20022;-74
2023/07/16 06:18:24;;;;;;;10.73;5.15;;;;;;;22.20;48.80;101011.25;6189335;23;20013;-74
2023/07/16 06:20:52;;;;;;;5.80;4.82;;;;;;;22.16;49.46;100989.13;6189748;23;20013;-74
2023/07/16 06:23:19;;;;;;;9.45;4.32;;;;;;;21.76;49.92;101009.81;6189299;23;20063;-73
2023/07/16 06:25:49;;;;;;;9.00;4.28;;;;;;;21.58;50.24;101016.66;6189696;23;20021;-74
2023/07/16 06:28:16;;;;;;;5.00;3.90;;;;;;;21.52;50.57;101012.56;6188727;23;20013;-75
2023/07/16 06:30:42;;;;;;;6.35;4.28;;;;;;;21.37;50.07;101010.25;6163073;23;20085;-74
2023/07/16 06:33:09;;;;;;;9.65;4.45;;;;;;;21.32;51.07;101013.00;6190163;23;20028;-75
2023/07/16 06:35:36;;;;;;;11.05;4.13;;;;;;;21.43;51.04;101016.34;6189575;23;20018;-76
2023/07/16 06:38:02;;;;;;;15.75;4.10;;;;;;;21.46;51.66;101018.03;6189861;23;20013;-75
2023/07/16 06:40:30;;;;;;;12.60;4.65;;;;;;;21.26;51.33;101018.47;6162721;23;20017;-74
2023/07/16 06:42:57;;;;;;;7.80;4.95;;;;;;;21.13;51.76;101026.44;6161410;23;20028;-74
2023/07/16 06:45:23;;;;;;;6.72;4.50;;;;;;;21.13;52.12;101023.75;6189601;23;20072;-74
2023/07/16 06:47:50;;;;;;;9.77;4.60;;;;;;;21.22;52.08;101026.13;6190031;23;20017;-74
2023/07/16 06:50:17;;;;;;;6.47;4.00;;;;;;;21.20;52.67;101012.34;6189576;23;20017;-75
2023/07/16 06:52:43;;;;;;;9.13;4.70;;;;;;;21.02;52.48;101016.44;6190108;23;20020;-75
2023/07/16 06:55:10;;;;;;;7.28;4.68;;;;;;;20.97;53.46;101017.97;6189308;23;20097;-74
2023/07/16 06:57:37;;;;;;;10.35;4.43;;;;;;;20.97;53.39;101017.22;6189563;23;20013;-73
2023/07/16 07:00:04;;;;;;;6.43;4.55;;;;;;;20.94;53.57;101037.91;6189972;23;20090;-73
2023/07/16 07:02:31;;;;;;;5.68;4.38;;;;;;;21.04;53.12;101032.19;6189174;23;20426;-73
2023/07/16 07:04:59;;;;;;;9.55;4.07;;;;;;;21.19;53.01;101030.56;6189894;23;20022;-73
2023/07/16 07:07:25;;;;;;;6.82;4.22;;;;;;;21.29;53.04;101033.69;6162604;23;20084;-73
2023/07/16 07:09:52;;;;;;;6.43;4.20;;;;;;;21.35;53.02;101028.97;6189227;23;20045;-73
2023/07/16 07:12:18;;;;;;;8.88;4.88;;;;;;;21.46;52.63;101031.56;6189398;23;20455;-73
2023/07/16 07:14:47;;;;;;;9.15;4.47;;;;;;;21.38;52.21;101055.03;6189447;23;20498;-74
2023/07/16 07:17:14;;;;;;;6.75;4.35;;;;;;;21.07;53.48;101044.72;6189303;23;20018;-74
2023/07/16 07:19:41;;;;;;;7.15;4.20;;;;;;;21.13;53.56;101058.94;6188944;23;20092;-74
2023/07/16 07:22:08;;;;;;;7.28;4.50;;;;;;;21.19;53.46;101056.91;6189009;23;20018;-75
2023/07/16 07:24:34;;;;;;;7.20;4.30;;;;;;;21.36;53.23;101062.94;6188423;23;20025;-74
2023/07/16 07:27:02;;;;;;;5.50;4.63;;;;;;;21.49;52.43;101073.88;6188618;23;20460;-74
2023/07/16 07:29:28;;;;;;;9.65;4.47;;;;;;;21.37;52.60;101074.50;6162599;23;20014;-74
2023/07/16 07:31:55;;;;;;;8.00;4.80;;;;;;;21.21;52.92;101067.97;6162539;23;20022;-74
2023/07/16 07:34:21;;;;;;;6.53;4.30;;;;;;;21.39;53.31;101086.28;6189027;23;20486;-74
2023/07/16 07:36:48;;;;;;;8.57;4.15;;;;;;;21.16;52.77;101080.31;6162484;23;20046;-74
2023/07/16 07:39:16;;;;;;;9.00;4.00;;;;;;;21.10;53.75;101078.88;6188983;23;20018;-74
2023/07/16 07:41:43;;;;;;;9.10;4.32;;;;;;;21.17;53.52;101075.63;6188586;23;20388;-74
2023/07/16 07:44:09;;;;;;;5.57;4.28;;;;;;;21.09;54.02;101080.13;6189313;23;20022;-74
2023/07/16 07:46:36;;;;;;;10.88;4.63;;;;;;;21.00;54.33;101080.44;6188766;23;20045;-73
2023/07/16 07:49:02;;;;;;;8.05;4.43;;;;;;;21.17;53.37;101072.94;6189186;23;20020;-73
2023/07/16 07:51:29;;;;;;;11.02;4.40;;;;;;;21.17;53.04;101079.06;6188545;23;20049;-73
2023/07/16 07:53:56;;;;;;;8.60;4.43;;;;;;;20.98;53.47;101094.47;6188531;23;20041;-74
2023/07/16 07:56:22;;;;;;;8.60;4.50;;;;;;;20.78;54.26;101078.63;6188760;23;20083;-74
2023/07/16 07:58:49;;;;;;;7.32;4.63;;;;;;;20.75;54.75;101082.34;6189039;23;20017;-74
2023/07/16 08:01:15;;;;;;;13.20;4.82;;;;;;;20.75;54.70;101095.88;6189556;23;20013;-74
2023/07/16 08:03:42;;;;;;;9.73;4.60;;;;;;;20.79;55.33;101112.56;6190181;23;20526;-74
2023/07/16 08:06:11;;;;;;;10.48;4.65;;;;;;;20.64;55.23;101105.50;6190628;23;20022;-74
2023/07/16 08:08:38;;;;;;;9.35;4.93;;;;;;;20.56;55.55;101098.44;6189580;23;20014;-74
2023/07/16 08:11:05;;;;;;;8.90;4.20;;;;;;;20.62;55.46;101107.25;6190383;23;20018;-74
2023/07/16 08:13:31;;;;;;;16.55;4.20;;;;;;;20.81;55.14;101108.09;6190074;23;20027;-74
2023/07/16 08:15:58;;;;;;;11.88;4.88;;;;;;;20.96;54.88;101111.22;6190403;23;20014;-74
2023/07/16 08:18:25;;;;;;;6.68;4.30;;;;;;;20.90;55.04;101124.03;6188842;23;20520;-74
2023/07/16 08:20:52;;;;;;;10.57;4.40;;;;;;;20.79;55.03;101123.41;6190433;23;20045;-74
2023/07/16 08:23:18;;;;;;;9.63;4.70;;;;;;;20.80;55.43;101122.13;6189044;23;20025;-74
2023/07/16 08:25:45;;;;;;;8.60;4.72;;;;;;;20.90;55.06;101126.00;6190066;23;20018;-74
2023/07/16 08:28:12;;;;;;;9.80;4.35;;;;;;;21.08;55.43;101130.09;6189917;23;20068;-74
2023/07/16 08:30:39;;;;;;;8.18;4.47;;;;;;;21.15;54.86;101118.72;6189382;23;20017;-74
2023/07/16 08:33:05;;;;;;;6.60;4.70;;;;;;;21.18;54.80;101118.44;6163600;23;20530;-74
2023/07/16 08:35:32;;;;;;;9.38;4.32;;;;;;;21.17;54.71;101127.06;6189751;23;20018;-74
2023/07/16 08:37:58;;;;;;;11.65;4.63;;;;;;;20.93;55.28;101125.00;6189366;23;20440;-74
2023/07/16 08:40:27;;;;;;;6.45;4.53;;;;;;;20.97;55.87;101128.19;6189355;23;20009;-74
2023/07/16 08:42:56;;;;;;;7.72;4.97;;;;;;;21.03;55.38;101144.38;6163413;23;20025;-74
2023/07/16 08:45:25;;;;;;;10.63;4.72;;;;;;;20.98;55.64;101135.06;6189599;23;20100;-74
2023/07/16 08:47:53;;;;;;;7.55;4.75;;;;;;;20.86;55.53;101142.50;6190095;23;20017;-74
2023/07/16 08:50:21;;;;;;;11.25;4.97;;;;;;;20.85;56.13;101141.03;6189802;23;20064;-73
2023/07/16 08:52:48;;;;;;;7.93;4.78;;;;;;;20.92;55.93;101142.47;6189301;23;20053;-74
2023/07/16 08:55:16;;;;;;;10.23;4.80;;;;;;;20.77;56.16;101145.53;6190143;23;20355;-74
2023/07/16 08:57:43;;;;;;;7.55;4.82;;;;;;;20.83;56.29;101154.34;6190015;23;20436;-74
2023/07/16 09:00:11;;;;;;;9.23;5.03;;;;;;;20.95;55.92;101144.91;6190251;23;20105;-74
2023/07/16 09:02:37;;;;;;;6.78;4.90;;;;;;;20.96;55.12;101142.94;6189776;23;20517;-74
2023/07/16 09:05:04;;;;;;;6.50;4.60;;;;;;;20.83;55.97;101145.47;6190280;23;20360;-74
2023/07/16 09:07:31;;;;;;;7.60;4.65;;;;;;;20.83;56.24;101167.13;6189182;23;20025;-75
2023/07/16 09:09:59;;;;;;;7.25;5.43;;;;;;;21.33;54.82;101160.69;6190035;23;20013;-74
2023/07/16 09:12:27;;;;;;;6.95;4.40;;;;;;;21.69;55.17;101164.06;6189394;23;20400;-75
2023/07/16 09:14:54;;;;;;;9.52;4.63;;;;;;;22.00;53.66;101168.19;6163414;23;20017;-75
2023/07/16 09:17:24;;;;;;;9.43;4.70;;;;;;;21.98;53.93;101170.69;6189933;23;20025;-77
2023/07/16 09:19:52;;;;;;;9.63;4.88;;;;;;;21.76;53.80;101168.94;6189620;23;20085;-75
2023/07/16 09:22:19;;;;;;;9.10;4.78;;;;;;;21.45;54.02;101164.78;6163378;23;20025;-78
2023/07/16 09:24:47;;;;;;;8.30;5.13;;;;;;;21.25;55.23;101184.84;6163338;23;20064;-79
2023/07/16 09:27:14;;;;;;;5.05;4.47;;;;;;;21.09;54.28;101191.84;6189779;23;20017;-78
2023/07/16 09:29:41;;;;;;;11.20;4.70;;;;;;;21.04;54.59;101184.47;6189837;23;20013;-82
2023/07/16 09:32:08;;;;;;;8.80;4.57;;;;;;;21.11;54.51;101175.81;6189970;23;20022;-82
2023/07/16 09:34:35;;;;;;;6.40;4.45;;;;;;;21.26;54.48;101176.22;6189041;23;20017;-81
2023/07/16 09:37:05;;;;;;;7.57;4.40;;;;;;;21.33;54.82;101182.34;6190215;23;20022;-82
2023/07/16 09:39:32;;;;;;;12.98;3.97;;;;;;;21.46;54.28;101177.06;6189838;23;20014;-76
2023/07/16 09:41:59;;;;;;;7.13;4.28;;;;;;;21.58;53.19;101183.88;6189706;23;20025;-75
2023/07/16 09:44:26;;;;;;;7.10;4.18;;;;;;;21.46;53.69;101177.81;6189489;23;20026;-76
2023/07/16 09:46:52;;;;;;;11.63;5.05;;;;;;;21.48;53.88;101188.13;6163926;23;20077;-75
2023/07/16 09:49:19;;;;;;;8.98;4.55;;;;;;;21.39;54.30;101185.75;6189146;23;20021;-75
2023/07/16 09:51:48;;;;;;;8.57;4.68;;;;;;;21.43;54.15;101186.22;6190291;23;20017;-76
2023/07/16 09:54:15;;;;;;;5.10;4.55;;;;;;;21.52;54.09;101189.34;6190068;23;20018;-75
2023/07/16 09:57:04;;;;;;;7.03;4.45;;;;;;;21.54;54.05;101189.56;6189703;23;20018;-76
2023/07/16 09:59:32;;;;;;;6.97;4.43;;;;;;;21.63;53.64;101193.91;6189970;23;20460;-76
2023/07/16 10:01:59;;;;;;;6.43;4.10;;;;;;;21.53;54.19;101200.91;6189785;23;20021;-76
2023/07/16 10:04:39;;;;;;;7.53;4.40;;;;;;;21.38;54.67;101208.66;6188989;23;20020;-76
2023/07/16 10:07:06;;;;;;;5.50;4.35;;;;;;;21.39;55.13;101202.72;6190303;23;20092;-76
2023/07/16 10:09:51;;;;;;;10.35;4.60;;;;;;;21.41;54.72;101204.94;6163463;23;20045;-75
2023/07/16 10:12:19;;;;;;;7.13;5.00;;;;;;;21.66;54.73;101205.72;6189845;23;20097;-75
2023/07/16 10:14:47;;;;;;;6.60;4.43;;;;;;;22.05;54.21;101210.81;6190009;23;20014;-77
2023/07/16 10:17:19;;;;;;;8.43;4.30;;;;;;;22.60;54.61;101214.88;6190228;23;20018;-77
2023/07/16 10:20:01;;;;;;;5.93;4.63;;;;;;;23.03;52.90;101214.13;6189371;23;20467;-76
2023/07/16 10:22:37;;;;;;;;;;;;;;;23.46;53.22;101225.56;6190140;23;20032;-78
2023/07/16 10:25:22;;;;;;;10.10;4.30;;;;;;;23.18;50.91;101222.53;6189500;23;19927;-78
2023/07/16 10:27:51;;;;;;;5.00;4.10;;;;;;;22.70;51.49;101218.72;6189665;23;20076;-77
2023/07/16 10:30:18;;;;;;;9.57;4.03;;;;;;;22.33;51.97;101229.50;6189982;23;20056;-78
2023/07/16 10:32:45;;;;;;;5.70;4.28;;;;;;;22.03;52.84;101226.84;6189622;23;20022;-77
2023/07/16 10:35:12;;;;;;;7.38;4.78;;;;;;;21.77;53.11;101227.31;6190148;23;20025;-77
2023/07/16 10:37:40;;;;;;;8.48;4.30;;;;;;;21.62;54.04;101247.34;6189774;23;20018;-78
2023/07/16 10:40:11;;;;;;;5.50;4.18;;;;;;;21.54;53.43;101241.03;6189818;23;20022;-77
2023/07/16 10:42:40;;;;;;;11.68;5.38;;;;;;;21.50;54.67;101235.16;6163260;23;20026;-82
2023/07/16 10:45:08;;;;;;;9.35;4.95;;;;;;;21.69;54.22;101248.06;6190500;23;20049;-88
2023/07/16 10:47:36;;;;;;;7.80;4.63;;;;;;;21.89;54.14;101240.25;6162891;23;20025;-85
2023/07/16 10:50:08;;;;;;;5.70;4.40;;;;;;;22.02;53.33;101255.19;6138730;23;20022;-83
2023/07/16 10:52:36;;;;;;;8.00;4.47;;;;;;;22.09;52.54;101258.06;6162952;23;20467;-85
2023/07/16 10:55:03;;;;;;;6.95;4.47;;;;;;;22.19;52.45;101242.94;6189824;23;20470;-84
2023/07/16 10:57:29;;;;;;;5.80;4.22;;;;;;;22.23;52.04;101248.84;6188352;23;20440;-84
2023/07/16 10:59:58;;;;;;;6.53;4.57;;;;;;;22.19;52.88;101259.22;6161907;23;20473;-84
2023/07/16 11:02:26;;;;;;;6.45;4.53;;;;;;;22.12;53.32;101259.03;6188368;23;20049;-85
2023/07/16 11:04:53;;;;;;;6.07;4.00;;;;;;;22.25;53.45;101267.31;6188818;23;20017;-83
2023/07/16 11:07:21;;;;;;;9.50;4.00;;;;;;;22.43;51.97;101271.31;6161898;23;20028;-82
2023/07/16 11:09:50;;;;;;;5.20;4.10;;;;;;;22.48;52.40;101265.09;6161924;23;20084;-85
2023/07/16 11:12:21;;;;;;;8.68;4.30;;;;;;;22.44;53.05;101262.66;6189512;23;20041;-81
2023/07/16 11:14:51;;;;;;;7.65;4.50;;;;;;;22.86;52.64;101253.06;6163195;23;20100;-82
2023/07/16 11:17:17;;;;;;;5.03;3.85;;;;;;;22.91;52.37;101271.25;6189495;23;20076;-79
2023/07/16 11:19:46;;;;;;;7.03;4.13;;;;;;;22.56;52.50;101266.72;6162774;23;20017;-77
2023/07/16 11:22:14;;;;;;;8.88;4.05;;;;;;;22.45;53.26;101274.25;6189394;23;20520;-77
2023/07/16 11:24:48;;;;;;;6.05;4.20;;;;;;;22.27;53.49;101267.53;6188922;23;20024;-77
2023/07/16 11:27:22;;;;;;;5.32;3.92;;;;;;;22.32;52.93;101276.84;6189050;23;20104;-77